<?xml version="1.0" encoding="UTF-8" standalone="no" ?>
<gpx xmlns="http://www.topografix.com/GPX/1/1" xmlns:xsi="http://www.w3.org/2001/XMLSchema-instance" xsi:schemaLocation="http://www.topografix.com/GPX/1/1 http://www.topografix.com/GPX/1/1/gpx.xsd" version="1.1" creator="VisuGPX - https://www.visugpx.com">
  <metadata>
    <name>StEtienneMontluc_SautronCoueron_30km</name>
    <desc><![CDATA[gnerando idor:9214691]]></desc>
  </metadata>
  <trk>
    <name><![CDATA[StEtienneMontluc_30km-9214691]]></name>
    <extensions>
      <line xmlns="http://www.topografix.com/GPX/gpx_style/0/2">
        <color>0000FF</color>
        <width>4</width>
      </line>
    </extensions>
    <trkseg>
      <trkpt lat="47.26244" lon="-1.70342">
        <ele>59</ele>
        <time>2023-11-13T10:59:58Z</time>
      </trkpt>
      <trkpt lat="47.26314" lon="-1.70746">
        <ele>58</ele>
        <time>2023-11-13T11:06:16Z</time>
      </trkpt>
      <trkpt lat="47.26191" lon="-1.71484">
        <ele>71</ele>
        <time>2023-11-13T11:17:44Z</time>
      </trkpt>
      <trkpt lat="47.26121" lon="-1.71578">
        <ele>72</ele>
        <time>2023-11-13T11:19:50Z</time>
      </trkpt>
      <trkpt lat="47.26168" lon="-1.71759">
        <ele>74</ele>
        <time>2023-11-13T11:22:46Z</time>
      </trkpt>
      <trkpt lat="47.26145" lon="-1.7181">
        <ele>74</ele>
        <time>2023-11-13T11:23:41Z</time>
      </trkpt>
      <trkpt lat="47.26261" lon="-1.72119">
        <ele>76</ele>
        <time>2023-11-13T11:29:01Z</time>
      </trkpt>
      <trkpt lat="47.26383" lon="-1.72196">
        <ele>74</ele>
        <time>2023-11-13T11:31:58Z</time>
      </trkpt>
      <trkpt lat="47.2643" lon="-1.72274">
        <ele>73</ele>
        <time>2023-11-13T11:33:33Z</time>
      </trkpt>
      <trkpt lat="47.26442" lon="-1.7242">
        <ele>73</ele>
        <time>2023-11-13T11:35:46Z</time>
      </trkpt>
      <trkpt lat="47.2643" lon="-1.72497">
        <ele>73</ele>
        <time>2023-11-13T11:36:57Z</time>
      </trkpt>
      <trkpt lat="47.26547" lon="-1.7278">
        <ele>76</ele>
        <time>2023-11-13T11:41:57Z</time>
      </trkpt>
      <trkpt lat="47.26389" lon="-1.72952">
        <ele>71</ele>
        <time>2023-11-13T11:46:20Z</time>
      </trkpt>
      <trkpt lat="47.26482" lon="-1.73218">
        <ele>72</ele>
        <time>2023-11-13T11:50:50Z</time>
      </trkpt>
      <trkpt lat="47.2664" lon="-1.73329">
        <ele>73</ele>
        <time>2023-11-13T11:54:44Z</time>
      </trkpt>
      <trkpt lat="47.2664" lon="-1.7357">
        <ele>68</ele>
        <time>2023-11-13T11:58:22Z</time>
      </trkpt>
      <trkpt lat="47.26785" lon="-1.73741">
        <ele>68</ele>
        <time>2023-11-13T12:02:30Z</time>
      </trkpt>
      <trkpt lat="47.26908" lon="-1.74299">
        <ele>68</ele>
        <time>2023-11-13T12:11:21Z</time>
      </trkpt>
      <trkpt lat="47.26873" lon="-1.74488">
        <ele>66</ele>
        <time>2023-11-13T12:14:19Z</time>
      </trkpt>
      <trkpt lat="47.26919" lon="-1.74754">
        <ele>63</ele>
        <time>2023-11-13T12:18:27Z</time>
      </trkpt>
      <trkpt lat="47.26768" lon="-1.7478">
        <ele>57</ele>
        <time>2023-11-13T12:21:50Z</time>
      </trkpt>
      <trkpt lat="47.26582" lon="-1.74943">
        <ele>35</ele>
        <time>2023-11-13T12:26:39Z</time>
      </trkpt>
      <trkpt lat="47.26675" lon="-1.75269">
        <ele>29</ele>
        <time>2023-11-13T12:31:59Z</time>
      </trkpt>
      <trkpt lat="47.26785" lon="-1.75209">
        <ele>40</ele>
        <time>2023-11-13T12:34:36Z</time>
      </trkpt>
      <trkpt lat="47.26832" lon="-1.75286">
        <ele>37</ele>
        <time>2023-11-13T12:36:10Z</time>
      </trkpt>
      <trkpt lat="47.26937" lon="-1.75286">
        <ele>45</ele>
        <time>2023-11-13T12:38:30Z</time>
      </trkpt>
      <trkpt lat="47.27077" lon="-1.75355">
        <ele>61</ele>
        <time>2023-11-13T12:41:47Z</time>
      </trkpt>
      <trkpt lat="47.2703" lon="-1.75527">
        <ele>55</ele>
        <time>2023-11-13T12:44:35Z</time>
      </trkpt>
      <trkpt lat="47.27449" lon="-1.75432">
        <ele>70</ele>
        <time>2023-11-13T12:54:00Z</time>
      </trkpt>
      <trkpt lat="47.27379" lon="-1.75784">
        <ele>66</ele>
        <time>2023-11-13T12:59:32Z</time>
      </trkpt>
      <trkpt lat="47.2742" lon="-1.7587">
        <ele>66</ele>
        <time>2023-11-13T13:01:08Z</time>
      </trkpt>
      <trkpt lat="47.27531" lon="-1.75887">
        <ele>66</ele>
        <time>2023-11-13T13:03:37Z</time>
      </trkpt>
      <trkpt lat="47.27449" lon="-1.7611">
        <ele>69</ele>
        <time>2023-11-13T13:07:26Z</time>
      </trkpt>
      <trkpt lat="47.27496" lon="-1.76222">
        <ele>69</ele>
        <time>2023-11-13T13:09:25Z</time>
      </trkpt>
      <trkpt lat="47.27752" lon="-1.76067">
        <ele>70</ele>
        <time>2023-11-13T13:15:35Z</time>
      </trkpt>
      <trkpt lat="47.27859" lon="-1.76015">
        <ele>74</ele>
        <time>2023-11-13T13:18:05Z</time>
      </trkpt>
      <trkpt lat="47.2796" lon="-1.75945">
        <ele>76</ele>
        <time>2023-11-13T13:20:34Z</time>
      </trkpt>
      <trkpt lat="47.28036" lon="-1.7588">
        <ele>78</ele>
        <time>2023-11-13T13:22:31Z</time>
      </trkpt>
      <trkpt lat="47.28262" lon="-1.75904">
        <ele>76</ele>
        <time>2023-11-13T13:27:34Z</time>
      </trkpt>
      <trkpt lat="47.28282" lon="-1.75879">
        <ele>76</ele>
        <time>2023-11-13T13:28:09Z</time>
      </trkpt>
      <trkpt lat="47.28503" lon="-1.75913">
        <ele>82</ele>
        <time>2023-11-13T13:33:05Z</time>
      </trkpt>
      <trkpt lat="47.2862" lon="-1.76059">
        <ele>81</ele>
        <time>2023-11-13T13:36:30Z</time>
      </trkpt>
      <trkpt lat="47.28602" lon="-1.76394">
        <ele>80</ele>
        <time>2023-11-13T13:41:34Z</time>
      </trkpt>
      <trkpt lat="47.28684" lon="-1.7672">
        <ele>77</ele>
        <time>2023-11-13T13:46:49Z</time>
      </trkpt>
      <trkpt lat="47.28468" lon="-1.769">
        <ele>76</ele>
        <time>2023-11-13T13:52:20Z</time>
      </trkpt>
      <trkpt lat="47.28462" lon="-1.77029">
        <ele>74</ele>
        <time>2023-11-13T13:54:17Z</time>
      </trkpt>
      <trkpt lat="47.28553" lon="-1.77117">
        <ele>73</ele>
        <time>2023-11-13T13:56:42Z</time>
      </trkpt>
      <trkpt lat="47.28732" lon="-1.77009">
        <ele>78</ele>
        <time>2023-11-13T14:01:00Z</time>
      </trkpt>
      <trkpt lat="47.29072" lon="-1.77027">
        <ele>81</ele>
        <time>2023-11-13T14:08:34Z</time>
      </trkpt>
      <trkpt lat="47.29077" lon="-1.77413">
        <ele>78</ele>
        <time>2023-11-13T14:14:24Z</time>
      </trkpt>
      <trkpt lat="47.29016" lon="-1.7776">
        <ele>77</ele>
        <time>2023-11-13T14:19:48Z</time>
      </trkpt>
      <trkpt lat="47.29026" lon="-1.78341">
        <ele>71</ele>
        <time>2023-11-13T14:28:34Z</time>
      </trkpt>
      <trkpt lat="47.29011" lon="-1.78604">
        <ele>68</ele>
        <time>2023-11-13T14:32:33Z</time>
      </trkpt>
      <trkpt lat="47.28781" lon="-1.79023">
        <ele>69</ele>
        <time>2023-11-13T14:40:41Z</time>
      </trkpt>
      <trkpt lat="47.28727" lon="-1.79124">
        <ele>63</ele>
        <time>2023-11-13T14:42:37Z</time>
      </trkpt>
      <trkpt lat="47.2871" lon="-1.79257">
        <ele>54</ele>
        <time>2023-11-13T14:44:40Z</time>
      </trkpt>
      <trkpt lat="47.28612" lon="-1.79297">
        <ele>40</ele>
        <time>2023-11-13T14:46:56Z</time>
      </trkpt>
      <trkpt lat="47.28544" lon="-1.79156">
        <ele>40</ele>
        <time>2023-11-13T14:49:32Z</time>
      </trkpt>
      <trkpt lat="47.28534" lon="-1.79008">
        <ele>45</ele>
        <time>2023-11-13T14:51:47Z</time>
      </trkpt>
      <trkpt lat="47.28458" lon="-1.79026">
        <ele>36</ele>
        <time>2023-11-13T14:53:29Z</time>
      </trkpt>
      <trkpt lat="47.28402" lon="-1.7886">
        <ele>43</ele>
        <time>2023-11-13T14:56:17Z</time>
      </trkpt>
      <trkpt lat="47.28355" lon="-1.7899">
        <ele>31</ele>
        <time>2023-11-13T14:58:31Z</time>
      </trkpt>
      <trkpt lat="47.28223" lon="-1.78792">
        <ele>30</ele>
        <time>2023-11-13T15:02:42Z</time>
      </trkpt>
      <trkpt lat="47.27939" lon="-1.78572">
        <ele>21</ele>
        <time>2023-11-13T15:09:50Z</time>
      </trkpt>
      <trkpt lat="47.27692" lon="-1.7799">
        <ele>25</ele>
        <time>2023-11-13T15:20:12Z</time>
      </trkpt>
      <trkpt lat="47.27664" lon="-1.77942">
        <ele>25</ele>
        <time>2023-11-13T15:21:09Z</time>
      </trkpt>
      <trkpt lat="47.27606" lon="-1.77943">
        <ele>23</ele>
        <time>2023-11-13T15:22:26Z</time>
      </trkpt>
      <trkpt lat="47.27544" lon="-1.77642">
        <ele>20</ele>
        <time>2023-11-13T15:27:11Z</time>
      </trkpt>
      <trkpt lat="47.27524" lon="-1.77496">
        <ele>21</ele>
        <time>2023-11-13T15:29:26Z</time>
      </trkpt>
      <trkpt lat="47.27485" lon="-1.77368">
        <ele>24</ele>
        <time>2023-11-13T15:31:33Z</time>
      </trkpt>
      <trkpt lat="47.27461" lon="-1.77381">
        <ele>23</ele>
        <time>2023-11-13T15:32:07Z</time>
      </trkpt>
      <trkpt lat="47.27385" lon="-1.77209">
        <ele>26</ele>
        <time>2023-11-13T15:35:13Z</time>
      </trkpt>
      <trkpt lat="47.27315" lon="-1.77149">
        <ele>26</ele>
        <time>2023-11-13T15:37:01Z</time>
      </trkpt>
      <trkpt lat="47.27222" lon="-1.77175">
        <ele>24</ele>
        <time>2023-11-13T15:39:07Z</time>
      </trkpt>
      <trkpt lat="47.26919" lon="-1.76651">
        <ele>20</ele>
        <time>2023-11-13T15:49:31Z</time>
      </trkpt>
      <trkpt lat="47.26931" lon="-1.76299">
        <ele>25</ele>
        <time>2023-11-13T15:54:50Z</time>
      </trkpt>
      <trkpt lat="47.26634" lon="-1.76119">
        <ele>18</ele>
        <time>2023-11-13T16:01:58Z</time>
      </trkpt>
      <trkpt lat="47.26331" lon="-1.76042">
        <ele>12</ele>
        <time>2023-11-13T16:08:49Z</time>
      </trkpt>
      <trkpt lat="47.26133" lon="-1.75827">
        <ele>14</ele>
        <time>2023-11-13T16:14:17Z</time>
      </trkpt>
      <trkpt lat="47.25999" lon="-1.76153">
        <ele>15</ele>
        <time>2023-11-13T16:20:02Z</time>
      </trkpt>
      <trkpt lat="47.25585" lon="-1.75604">
        <ele>17</ele>
        <time>2023-11-13T16:32:25Z</time>
      </trkpt>
      <trkpt lat="47.25504" lon="-1.7587">
        <ele>19</ele>
        <time>2023-11-13T16:36:50Z</time>
      </trkpt>
      <trkpt lat="47.2555" lon="-1.76136">
        <ele>19</ele>
        <time>2023-11-13T16:40:58Z</time>
      </trkpt>
      <trkpt lat="47.25469" lon="-1.76248">
        <ele>17</ele>
        <time>2023-11-13T16:43:26Z</time>
      </trkpt>
      <trkpt lat="47.25242" lon="-1.76067">
        <ele>13</ele>
        <time>2023-11-13T16:49:11Z</time>
      </trkpt>
      <trkpt lat="47.24898" lon="-1.76067">
        <ele>8</ele>
        <time>2023-11-13T16:56:50Z</time>
      </trkpt>
      <trkpt lat="47.24869" lon="-1.76634">
        <ele>7</ele>
        <time>2023-11-13T17:05:25Z</time>
      </trkpt>
      <trkpt lat="47.24741" lon="-1.76574">
        <ele>4</ele>
        <time>2023-11-13T17:08:24Z</time>
      </trkpt>
      <trkpt lat="47.24624" lon="-1.76428">
        <ele>4</ele>
        <time>2023-11-13T17:11:49Z</time>
      </trkpt>
      <trkpt lat="47.24368" lon="-1.76608">
        <ele>2</ele>
        <time>2023-11-13T17:18:07Z</time>
      </trkpt>
      <trkpt lat="47.24065" lon="-1.77097">
        <ele>-1</ele>
        <time>2023-11-13T17:28:07Z</time>
      </trkpt>
      <trkpt lat="47.23569" lon="-1.76342">
        <ele>1</ele>
        <time>2023-11-13T17:43:59Z</time>
      </trkpt>
      <trkpt lat="47.23593" lon="-1.7617">
        <ele>1.7</ele>
        <time>2023-11-13T17:46:38Z</time>
      </trkpt>
      <trkpt lat="47.23733" lon="-1.75681">
        <ele>2</ele>
        <time>2023-11-13T17:54:39Z</time>
      </trkpt>
      <trkpt lat="47.23814" lon="-1.75089">
        <ele>1</ele>
        <time>2023-11-13T18:03:46Z</time>
      </trkpt>
      <trkpt lat="47.23983" lon="-1.75037">
        <ele>8</ele>
        <time>2023-11-13T18:07:37Z</time>
      </trkpt>
      <trkpt lat="47.23983" lon="-1.74874">
        <ele>9</ele>
        <time>2023-11-13T18:10:04Z</time>
      </trkpt>
      <trkpt lat="47.23917" lon="-1.74717">
        <ele>5</ele>
        <time>2023-11-13T18:12:52Z</time>
      </trkpt>
      <trkpt lat="47.2382" lon="-1.74548">
        <ele>4</ele>
        <time>2023-11-13T18:16:12Z</time>
      </trkpt>
      <trkpt lat="47.23456" lon="-1.7437">
        <ele>7</ele>
        <time>2023-11-13T18:24:44Z</time>
      </trkpt>
      <trkpt lat="47.23228" lon="-1.74232">
        <ele>10</ele>
        <time>2023-11-13T18:30:13Z</time>
      </trkpt>
      <trkpt lat="47.23515" lon="-1.73722">
        <ele>5</ele>
        <time>2023-11-13T18:40:13Z</time>
      </trkpt>
      <trkpt lat="47.23482" lon="-1.73639">
        <ele>6</ele>
        <time>2023-11-13T18:41:40Z</time>
      </trkpt>
      <trkpt lat="47.2344" lon="-1.73147">
        <ele>17</ele>
        <time>2023-11-13T18:49:09Z</time>
      </trkpt>
      <trkpt lat="47.23218" lon="-1.72164">
        <ele>15</ele>
        <time>2023-11-13T19:04:48Z</time>
      </trkpt>
      <trkpt lat="47.23407" lon="-1.72073">
        <ele>16</ele>
        <time>2023-11-13T19:09:13Z</time>
      </trkpt>
      <trkpt lat="47.23412" lon="-1.71897">
        <ele>20</ele>
        <time>2023-11-13T19:11:53Z</time>
      </trkpt>
      <trkpt lat="47.23515" lon="-1.71545">
        <ele>27</ele>
        <time>2023-11-13T19:17:40Z</time>
      </trkpt>
      <trkpt lat="47.2384" lon="-1.71448">
        <ele>25</ele>
        <time>2023-11-13T19:25:03Z</time>
      </trkpt>
      <trkpt lat="47.24068" lon="-1.70916">
        <ele>27</ele>
        <time>2023-11-13T19:34:33Z</time>
      </trkpt>
      <trkpt lat="47.24138" lon="-1.70314">
        <ele>40</ele>
        <time>2023-11-13T19:43:46Z</time>
      </trkpt>
      <trkpt lat="47.24505" lon="-1.69916">
        <ele>49</ele>
        <time>2023-11-13T19:53:54Z</time>
      </trkpt>
      <trkpt lat="47.24713" lon="-1.69855">
        <ele>58</ele>
        <time>2023-11-13T19:58:37Z</time>
      </trkpt>
      <trkpt lat="47.24872" lon="-1.69661">
        <ele>62</ele>
        <time>2023-11-13T20:03:13Z</time>
      </trkpt>
      <trkpt lat="47.25122" lon="-1.69457">
        <ele>60</ele>
        <time>2023-11-13T20:09:34Z</time>
      </trkpt>
      <trkpt lat="47.25253" lon="-1.69498">
        <ele>60</ele>
        <time>2023-11-13T20:12:33Z</time>
      </trkpt>
      <trkpt lat="47.2535" lon="-1.69977">
        <ele>64</ele>
        <time>2023-11-13T20:20:06Z</time>
      </trkpt>
      <trkpt lat="47.25426" lon="-1.701">
        <ele>68</ele>
        <time>2023-11-13T20:22:36Z</time>
      </trkpt>
      <trkpt lat="47.25704" lon="-1.69977">
        <ele>64</ele>
        <time>2023-11-13T20:29:04Z</time>
      </trkpt>
      <trkpt lat="47.25794" lon="-1.70283">
        <ele>59</ele>
        <time>2023-11-13T20:34:06Z</time>
      </trkpt>
      <trkpt lat="47.256" lon="-1.70457">
        <ele>67</ele>
        <time>2023-11-13T20:39:09Z</time>
      </trkpt>
      <trkpt lat="47.25551" lon="-1.70569">
        <ele>65</ele>
        <time>2023-11-13T20:41:10Z</time>
      </trkpt>
      <trkpt lat="47.25593" lon="-1.70733">
        <ele>64</ele>
        <time>2023-11-13T20:43:48Z</time>
      </trkpt>
      <trkpt lat="47.25794" lon="-1.70733">
        <ele>63</ele>
        <time>2023-11-13T20:48:17Z</time>
      </trkpt>
      <trkpt lat="47.26223" lon="-1.70304">
        <ele>58</ele>
        <time>2023-11-13T20:59:48Z</time>
      </trkpt>
    </trkseg>
  </trk>
</gpx>